Time;durP1;ratioP1;P1;durP2;ratioP2;P2;SDS_P1;SDS_P2;PMS_P1;PMS_P2;Temp;Humidity;BMP_temperature;BMP_pressure;BME280_temperature;BME280_humidity;BME280_pressure;Samples;Min_cycle;Max_cycle;Signal;HPM_P1;HPM_P2
2022/07/03 00:01:17;;;;;;;3.63;1.73;;;16.10;99.90;;;;;;5048432;28;20110;-48
2022/07/03 00:03:42;;;;;;;5.00;1.98;;;15.80;99.90;;;;;;5048189;28;20379;-48
2022/07/03 00:06:09;;;;;;;2.90;1.60;;;16.10;99.90;;;;;;5048206;28;20049;-51
2022/07/03 00:08:34;;;;;;;4.50;2.83;;;15.90;99.90;;;;;;5047869;28;20421;-49
2022/07/03 00:11:00;;;;;;;3.88;3.28;;;15.70;99.90;;;;;;5047859;28;20136;-49
2022/07/03 00:13:26;;;;;;;4.60;2.70;;;15.60;99.90;;;;;;5048315;28;20178;-48
2022/07/03 00:15:51;;;;;;;3.92;2.65;;;15.60;99.90;;;;;;5048008;28;20045;-48
2022/07/03 00:18:17;;;;;;;6.32;2.80;;;15.60;99.90;;;;;;5048106;28;20551;-48
2022/07/03 00:20:47;;;;;;;5.43;3.72;;;15.60;99.90;;;;;;5047800;28;20049;-48
2022/07/03 00:23:16;;;;;;;3.45;2.30;;;15.60;99.90;;;;;;5047893;28;20111;-48
2022/07/03 00:25:42;;;;;;;6.50;3.10;;;15.60;99.90;;;;;;5047702;28;20405;-47
2022/07/03 00:28:08;;;;;;;3.80;2.67;;;15.60;99.90;;;;;;5047591;28;20483;-49
2022/07/03 00:30:34;;;;;;;2.95;2.63;;;15.70;99.90;;;;;;5047936;28;20049;-49
2022/07/03 00:33:04;;;;;;;4.22;1.88;;;15.50;99.90;;;;;;5047785;28;20052;-49
2022/07/03 00:35:36;;;;;;;5.00;2.58;;;15.40;99.90;;;;;;5047921;28;20097;-48
2022/07/03 00:38:02;;;;;;;5.45;2.08;;;15.50;99.90;;;;;;5047670;28;20131;-47
2022/07/03 00:40:29;;;;;;;2.53;1.95;;;15.30;99.90;;;;;;5046488;28;20118;-49
2022/07/03 00:42:55;;;;;;;4.03;1.92;;;15.40;99.90;;;;;;5049859;28;20136;-48
2022/07/03 00:45:22;;;;;;;3.35;2.10;;;15.30;99.90;;;;;;5052217;28;20048;-48
2022/07/03 00:47:48;;;;;;;4.10;2.10;;;15.60;99.90;;;;;;5051621;28;20048;-49
2022/07/03 00:50:14;;;;;;;3.97;2.80;;;15.30;99.90;;;;;;5051842;28;20040;-49
2022/07/03 00:52:45;;;;;;;4.05;2.42;;;15.20;99.90;;;;;;5051659;28;20045;-48
2022/07/03 00:55:17;;;;;;;6.43;2.43;;;15.20;99.90;;;;;;5051797;28;20048;-48
2022/07/03 00:57:47;;;;;;;4.47;1.80;;;15.10;99.90;;;;;;5051901;28;20043;-51
2022/07/03 01:00:15;;;;;;;2.85;1.60;;;15.10;99.90;;;;;;5052260;28;20052;-51
2022/07/03 01:02:44;;;;;;;6.35;2.00;;;15.10;99.90;;;;;;5051827;28;20045;-48
2022/07/03 01:05:24;;;;;;;6.22;1.80;;;15.00;99.90;;;;;;5051741;28;20045;-48
2022/07/03 01:08:05;;;;;;;7.20;2.30;;;14.80;99.90;;;;;;5051349;28;20041;-48
2022/07/03 01:11:06;;;;;;;4.50;3.40;;;14.70;99.90;;;;;;5050949;28;20462;-47
2022/07/03 01:13:39;;;;;;;7.45;3.70;;;14.80;99.90;;;;;;5051510;28;20048;-48
2022/07/03 01:16:35;;;;;;;8.18;3.55;;;14.80;99.90;;;;;;5051355;28;20140;-47
2022/07/03 01:19:16;;;;;;;6.10;3.90;;;15.00;99.90;;;;;;5051233;28;20584;-48
2022/07/03 01:21:54;;;;;;;8.32;3.35;;;15.10;99.90;;;;;;5051507;28;20405;-48
2022/07/03 01:24:39;;;;;;;5.88;3.47;;;15.10;99.90;;;;;;5050934;28;20130;-48
2022/07/03 01:27:10;;;;;;;10.05;3.60;;;15.10;99.90;;;;;;5051176;28;20116;-47
2022/07/03 01:29:44;;;;;;;8.35;3.38;;;15.00;99.90;;;;;;5051277;28;20072;-49
2022/07/03 01:32:12;;;;;;;4.95;3.78;;;15.00;99.90;;;;;;5050923;28;20056;-49
2022/07/03 01:34:41;;;;;;;5.22;2.97;;;15.00;99.90;;;;;;5051202;28;20427;-48
2022/07/03 01:37:10;;;;;;;4.00;3.13;;;15.00;99.90;;;;;;5050862;28;20037;-48
2022/07/03 01:39:36;;;;;;;5.88;2.38;;;14.90;99.90;;;;;;5050911;28;20032;-50
2022/07/03 01:42:02;;;;;;;4.43;3.20;;;15.00;99.90;;;;;;5050843;28;20049;-47
2022/07/03 01:44:30;;;;;;;4.40;3.13;;;14.70;99.90;;;;;;5051049;28;20055;-49
2022/07/03 01:46:58;;;;;;;4.25;3.10;;;14.60;99.90;;;;;;5050868;28;20047;-47
2022/07/03 01:49:26;;;;;;;6.57;3.67;;;14.70;99.90;;;;;;5051194;28;20037;-49
2022/07/03 01:51:53;;;;;;;6.70;3.42;;;14.40;99.90;;;;;;5050435;28;20040;-48
2022/07/03 01:54:20;;;;;;;5.28;3.60;;;14.40;99.90;;;;;;5049332;28;20041;-48
2022/07/03 01:56:46;;;;;;;8.52;3.88;;;14.80;99.90;;;;;;5050935;28;20037;-48
2022/07/03 01:59:12;;;;;;;4.15;3.75;;;14.30;99.90;;;;;;5050665;28;20048;-50
2022/07/03 02:01:48;;;;;;;4.25;3.85;;;14.20;99.90;;;;;;5050940;28;20037;-47
2022/07/03 02:04:24;;;;;;;5.40;4.22;;;14.10;99.90;;;;;;5050975;28;20037;-48
2022/07/03 02:07:45;;;;;;;5.45;3.88;;;14.00;99.90;;;;;;5050602;28;20102;-50
2022/07/03 02:10:16;;;;;;;8.55;4.85;;;13.90;99.90;;;;;;5026602;28;20167;-49
2022/07/03 02:12:57;;;;;;;6.20;4.68;;;13.90;99.90;;;;;;5046574;28;20056;-48
2022/07/03 02:15:30;;;;;;;7.70;5.07;;;13.90;99.90;;;;;;5050355;28;20052;-47
2022/07/03 02:17:57;;;;;;;7.28;5.22;;;13.90;99.90;;;;;;5050549;28;20118;-48
2022/07/03 02:20:25;;;;;;;8.13;5.40;;;13.90;99.90;;;;;;5050868;28;20391;-48
2022/07/03 02:23:02;;;;;;;4.57;3.15;;;13.90;99.90;;;;;;5050829;28;20033;-49
2022/07/03 02:25:40;;;;;;;7.38;3.55;;;13.80;99.90;;;;;;5050522;28;20371;-48
2022/07/03 02:28:34;;;;;;;4.03;3.33;;;13.70;99.90;;;;;;5050075;28;20045;-49
2022/07/03 02:31:03;;;;;;;6.13;3.70;;;13.60;99.90;;;;;;5050065;28;20045;-49
2022/07/03 02:33:31;;;;;;;5.10;3.70;;;13.70;99.90;;;;;;5050254;28;20584;-48
2022/07/03 02:35:58;;;;;;;3.85;3.10;;;13.70;99.90;;;;;;5049422;28;20491;-48
2022/07/03 02:38:26;;;;;;;3.80;2.97;;;14.10;99.90;;;;;;5049707;28;20538;-49
2022/07/03 02:41:23;;;;;;;4.15;3.10;;;13.30;99.90;;;;;;5050244;28;20048;-48
2022/07/03 02:43:57;;;;;;;5.10;3.35;;;13.60;99.90;;;;;;5049266;28;20099;-48
2022/07/03 02:46:50;;;;;;;3.45;2.70;;;13.60;99.90;;;;;;5050085;28;20442;-48
2022/07/03 02:49:33;;;;;;;6.03;3.17;;;13.20;99.90;;;;;;5049178;28;20049;-52
2022/07/03 02:52:30;;;;;;;5.40;3.92;;;13.00;99.90;;;;;;5049481;28;20055;-47
2022/07/03 02:55:01;;;;;;;5.50;4.18;;;12.90;99.90;;;;;;5049071;28;20491;-48
2022/07/03 02:57:39;;;;;;;9.95;5.63;;;13.00;99.90;;;;;;5049658;28;20068;-48
2022/07/03 03:00:07;;;;;;;7.22;6.43;;;13.00;99.90;;;;;;5049235;28;20144;-48
2022/07/03 03:02:55;;;;;;;12.13;4.68;;;13.10;99.90;;;;;;5049555;28;20045;-50
2022/07/03 03:05:30;;;;;;;9.27;4.43;;;12.90;99.90;;;;;;5048741;28;20049;-48
2022/07/03 03:08:25;;;;;;;6.82;5.43;;;12.80;99.90;;;;;;5049201;28;20045;-48
2022/07/03 03:10:54;;;;;;;6.95;4.40;;;12.80;99.90;;;;;;5048270;28;20052;-47
2022/07/03 03:13:23;;;;;;;6.25;4.85;;;12.80;99.90;;;;;;5049083;28;20179;-48
2022/07/03 03:16:10;;;;;;;5.85;4.35;;;13.30;99.90;;;;;;5049194;28;20087;-48
2022/07/03 03:18:37;;;;;;;6.50;4.07;;;13.10;99.90;;;;;;5049391;28;20043;-48
2022/07/03 03:21:08;;;;;;;6.55;4.78;;;12.80;99.90;;;;;;5048789;28;20084;-47
2022/07/03 03:23:44;;;;;;;8.02;4.63;;;12.70;99.90;;;;;;5049417;28;20429;-47
2022/07/03 03:26:11;;;;;;;8.30;5.57;;;13.00;99.90;;;;;;5047444;28;20049;-47
2022/07/03 03:28:38;;;;;;;6.50;5.90;;;13.20;99.90;;;;;;5048931;28;20044;-48
2022/07/03 03:31:08;;;;;;;9.27;6.80;;;13.20;99.90;;;;;;5048843;28;20045;-47
2022/07/03 03:33:38;;;;;;;8.25;6.53;;;13.30;99.90;;;;;;5048818;28;20103;-47
2022/07/03 03:36:06;;;;;;;7.78;6.95;;;13.20;99.90;;;;;;5048517;28;20445;-48
2022/07/03 03:38:32;;;;;;;7.40;6.35;;;12.80;99.90;;;;;;5048603;28;20558;-48
2022/07/03 03:40:58;;;;;;;8.48;7.10;;;13.00;99.90;;;;;;5048443;28;20123;-47
2022/07/03 03:43:24;;;;;;;8.52;6.78;;;12.90;99.90;;;;;;5048688;28;20060;-47
2022/07/03 03:45:50;;;;;;;8.85;5.07;;;13.00;99.90;;;;;;5048722;28;20041;-49
2022/07/03 03:48:16;;;;;;;4.40;4.00;;;11.90;99.90;;;;;;5048730;28;20468;-47
2022/07/03 03:50:43;;;;;;;6.07;5.03;;;13.30;99.90;;;;;;5048698;28;20501;-48
2022/07/03 03:53:10;;;;;;;6.38;4.80;;;13.40;99.90;;;;;;5048357;28;20088;-47
2022/07/03 03:55:36;;;;;;;5.57;4.57;;;13.30;99.90;;;;;;5048221;28;20403;-49
2022/07/03 03:58:01;;;;;;;7.35;4.57;;;13.00;99.90;;;;;;5048551;28;20033;-48
2022/07/03 04:00:27;;;;;;;6.10;4.30;;;13.00;99.90;;;;;;5048313;28;20033;-49
2022/07/03 04:02:53;;;;;;;7.75;5.13;;;13.30;99.90;;;;;;5048499;28;20036;-48
2022/07/03 04:05:19;;;;;;;6.03;5.35;;;13.00;99.90;;;;;;5048296;28;20048;-48
2022/07/03 04:07:44;;;;;;;7.28;4.82;;;13.00;99.90;;;;;;5048539;28;20067;-48
2022/07/03 04:10:11;;;;;;;6.70;5.10;;;13.40;99.90;;;;;;5047325;28;20060;-48
2022/07/03 04:12:37;;;;;;;6.05;5.28;;;13.40;99.90;;;;;;5048639;28;20063;-47
2022/07/03 04:15:03;;;;;;;6.85;5.57;;;13.10;99.90;;;;;;5048306;28;20041;-48
2022/07/03 04:17:29;;;;;;;5.57;4.97;;;13.30;99.90;;;;;;5047341;28;20139;-48
2022/07/03 04:19:55;;;;;;;8.90;5.20;;;13.10;99.90;;;;;;5048261;28;20123;-47
2022/07/03 04:22:21;;;;;;;8.25;4.65;;;13.60;99.90;;;;;;5047897;28;20045;-47
2022/07/03 04:24:46;;;;;;;6.80;4.95;;;13.10;99.90;;;;;;5047945;28;20036;-48
2022/07/03 04:27:12;;;;;;;5.50;4.82;;;13.70;99.90;;;;;;5047743;28;20593;-48
2022/07/03 04:29:38;;;;;;;8.68;5.15;;;14.10;99.90;;;;;;5047536;28;20054;-48
2022/07/03 04:32:04;;;;;;;6.68;4.65;;;13.60;99.90;;;;;;5047645;28;20084;-48
2022/07/03 04:34:29;;;;;;;5.40;4.75;;;13.50;99.90;;;;;;5047191;28;20083;-48
2022/07/03 04:36:55;;;;;;;8.05;5.10;;;13.40;99.90;;;;;;5047512;28;20037;-47
2022/07/03 04:39:21;;;;;;;10.93;5.63;;;14.10;99.90;;;;;;5047578;28;20048;-48
2022/07/03 04:41:46;;;;;;;7.32;5.18;;;14.20;99.90;;;;;;5047772;28;20463;-48
2022/07/03 04:44:12;;;;;;;7.28;4.47;;;14.50;99.90;;;;;;5047944;28;20407;-48
2022/07/03 04:46:37;;;;;;;7.57;4.38;;;14.20;99.90;;;;;;5047611;28;20049;-48
2022/07/03 04:49:03;;;;;;;6.53;4.82;;;13.80;99.90;;;;;;5047970;28;20045;-47
2022/07/03 04:51:29;;;;;;;4.68;4.15;;;13.70;99.90;;;;;;5047447;28;20080;-48
2022/07/03 04:53:55;;;;;;;6.43;4.40;;;14.30;99.90;;;;;;5047578;28;20083;-49
2022/07/03 04:56:20;;;;;;;5.10;4.43;;;14.10;99.90;;;;;;5047256;28;20069;-48
2022/07/03 04:58:46;;;;;;;7.55;5.10;;;13.80;99.90;;;;;;5047665;28;20040;-48
2022/07/03 05:01:12;;;;;;;4.85;4.32;;;14.00;99.90;;;;;;5047482;28;20064;-49
2022/07/03 05:03:37;;;;;;;6.40;5.05;;;14.20;99.90;;;;;;5047945;28;20549;-49
2022/07/03 05:06:03;;;;;;;5.32;4.32;;;13.80;99.90;;;;;;5047833;28;20049;-48
2022/07/03 05:08:29;;;;;;;6.30;5.78;;;13.80;99.90;;;;;;5047630;28;20127;-47
2022/07/03 05:10:54;;;;;;;5.63;4.93;;;13.50;99.90;;;;;;5046585;28;20056;-48
2022/07/03 05:13:20;;;;;;;6.45;5.20;;;14.30;99.90;;;;;;5046203;28;20353;-48
2022/07/03 05:15:46;;;;;;;5.82;4.97;;;14.10;99.90;;;;;;5047943;28;20045;-48
2022/07/03 05:18:11;;;;;;;5.90;4.80;;;13.80;99.90;;;;;;5047821;28;20429;-48
2022/07/03 05:20:37;;;;;;;5.38;4.88;;;13.90;99.90;;;;;;5047340;28;20190;-49
2022/07/03 05:23:03;;;;;;;6.72;5.45;;;14.00;99.90;;;;;;5047932;28;20588;-47
2022/07/03 05:25:30;;;;;;;5.15;4.65;;;14.10;99.90;;;;;;5046637;28;20404;-48
2022/07/03 05:27:57;;;;;;;7.13;5.53;;;14.30;99.90;;;;;;5047666;28;20041;-47
2022/07/03 05:30:24;;;;;;;4.93;4.35;;;14.70;99.90;;;;;;5050895;28;20076;-49
2022/07/03 05:32:50;;;;;;;8.25;4.82;;;14.90;99.90;;;;;;5051276;28;20041;-47
2022/07/03 05:35:16;;;;;;;6.57;4.95;;;15.20;99.90;;;;;;5051105;28;20041;-48
2022/07/03 05:37:42;;;;;;;5.30;3.67;;;15.60;99.90;;;;;;5049553;28;20037;-48
2022/07/03 05:40:09;;;;;;;6.15;3.47;;;16.20;99.90;;;;;;5050024;28;20255;-48
2022/07/03 05:42:35;;;;;;;5.65;3.63;;;16.20;99.90;;;;;;5050576;28;20040;-50
2022/07/03 05:45:01;;;;;;;5.20;3.65;;;16.40;99.90;;;;;;5050464;28;20048;-48
2022/07/03 05:47:27;;;;;;;8.50;3.75;;;16.80;99.90;;;;;;5050370;28;20053;-47
2022/07/03 05:49:53;;;;;;;12.82;4.28;;;17.10;99.90;;;;;;5050364;28;20041;-48
2022/07/03 05:52:19;;;;;;;4.30;3.90;;;17.40;99.90;;;;;;5050248;28;20116;-48
2022/07/03 05:54:45;;;;;;;4.22;3.00;;;17.80;99.90;;;;;;5050385;28;20148;-49
2022/07/03 05:57:11;;;;;;;4.40;3.20;;;18.60;99.90;;;;;;5050301;28;20041;-49
2022/07/03 05:59:37;;;;;;;5.53;3.20;;;22.20;99.90;;;;;;5050453;28;20080;-50
2022/07/03 06:02:03;;;;;;;4.63;2.58;;;22.20;99.90;;;;;;5050339;28;20033;-48
2022/07/03 06:04:28;;;;;;;3.00;2.70;;;21.70;99.90;;;;;;5049952;28;20128;-49
2022/07/03 06:06:57;;;;;;;3.50;2.13;;;21.90;99.90;;;;;;5050444;28;20037;-49
2022/07/03 06:09:23;;;;;;;4.78;2.22;;;22.50;97.90;;;;;;5049168;28;20049;-49
2022/07/03 06:11:48;;;;;;;2.75;1.75;;;23.20;96.20;;;;;;5050162;28;20190;-50
2022/07/03 06:14:15;;;;;;;5.03;1.52;;;24.30;93.80;;;;;;5050225;28;20555;-50
2022/07/03 06:16:41;;;;;;;3.00;1.63;;;24.00;94.10;;;;;;5049858;28;20372;-51
2022/07/03 06:19:06;;;;;;;5.03;1.55;;;23.80;95.30;;;;;;5050363;28;20044;-50
2022/07/03 06:21:33;;;;;;;1.70;0.88;;;24.60;94.00;;;;;;5049863;28;20072;-49
2022/07/03 06:23:59;;;;;;;2.38;1.00;;;26.80;91.20;;;;;;5048545;28;20045;-52
2022/07/03 06:26:26;;;;;;;1.92;0.52;;;26.70;88.40;;;;;;5049685;28;20051;-52
2022/07/03 06:28:51;;;;;;;3.72;0.88;;;25.90;87.40;;;;;;5049905;28;20051;-50
2022/07/03 06:31:17;;;;;;;2.63;0.88;;;25.40;87.90;;;;;;5049578;28;20041;-52
2022/07/03 06:33:43;;;;;;;2.30;0.70;;;24.90;88.60;;;;;;5049365;28;20045;-52
2022/07/03 06:36:09;;;;;;;2.25;0.80;;;24.80;90.70;;;;;;5049016;28;20068;-50
2022/07/03 06:38:34;;;;;;;1.67;0.40;;;26.90;88.30;;;;;;5049023;28;20032;-51
2022/07/03 06:41:00;;;;;;;2.40;0.60;;;28.80;83.30;;;;;;5047415;28;20044;-54
2022/07/03 06:43:25;;;;;;;2.55;0.32;;;30.40;77.40;;;;;;5048618;28;20106;-54
2022/07/03 06:45:51;;;;;;;1.55;0.20;;;31.90;72.80;;;;;;5048906;28;20118;-51
2022/07/03 06:48:17;;;;;;;1.77;0.20;;;32.80;67.80;;;;;;5047656;28;20041;-54
2022/07/03 06:50:42;;;;;;;2.22;0.30;;;33.40;64.40;;;;;;5048536;28;20067;-54
2022/07/03 06:53:08;;;;;;;0.95;0.30;;;34.40;61.80;;;;;;5049108;28;20140;-54
2022/07/03 06:55:34;;;;;;;1.05;0.15;;;35.30;59.40;;;;;;5048505;28;20047;-55
2022/07/03 06:57:59;;;;;;;1.10;0.22;;;35.80;57.70;;;;;;5049282;28;20520;-54
2022/07/03 07:00:25;;;;;;;2.28;0.20;;;36.50;55.20;;;;;;5048785;28;20047;-55
2022/07/03 07:02:51;;;;;;;3.10;0.20;;;37.00;54.60;;;;;;5049014;28;20044;-54
2022/07/03 07:05:16;;;;;;;1.17;0.10;;;36.10;54.40;;;;;;5048722;28;20083;-54
2022/07/03 07:07:42;;;;;;;1.08;0.22;;;34.60;54.80;;;;;;5048518;28;20044;-54
2022/07/03 07:10:08;;;;;;;0.47;0.10;;;33.40;55.70;;;;;;5048022;28;20560;-53
2022/07/03 07:12:34;;;;;;;2.33;0.38;;;32.10;57.40;;;;;;5048744;28;20564;-53
2022/07/03 07:15:00;;;;;;;1.73;0.38;;;31.20;57.80;;;;;;5049195;28;20045;-52
2022/07/03 07:17:25;;;;;;;1.50;0.15;;;30.80;59.00;;;;;;5048850;28;20047;-53
2022/07/03 07:19:51;;;;;;;1.65;0.40;;;30.40;59.90;;;;;;5048506;28;20041;-53
2022/07/03 07:22:16;;;;;;;1.67;0.20;;;30.20;60.30;;;;;;5048437;28;20041;-53
2022/07/03 07:24:42;;;;;;;1.02;0.20;;;29.80;59.80;;;;;;5048556;28;20482;-53
2022/07/03 07:27:08;;;;;;;1.65;0.20;;;29.40;59.50;;;;;;5048362;28;20029;-54
2022/07/03 07:29:33;;;;;;;1.27;0.20;;;29.10;59.50;;;;;;5048516;28;20072;-53
2022/07/03 07:31:59;;;;;;;1.42;0.20;;;29.40;60.00;;;;;;5048206;28;20051;-54
2022/07/03 07:34:25;;;;;;;1.63;0.30;;;30.60;60.90;;;;;;5048101;28;20044;-52
2022/07/03 07:36:51;;;;;;;1.60;0.22;;;30.70;59.10;;;;;;5048586;28;20128;-53
2022/07/03 07:39:16;;;;;;;2.42;0.30;;;30.50;59.60;;;;;;5047778;28;20127;-53
2022/07/03 07:41:42;;;;;;;2.53;0.20;;;30.90;59.50;;;;;;5048014;28;20487;-52
2022/07/03 07:44:07;;;;;;;2.33;0.35;;;30.60;59.30;;;;;;5048246;28;20041;-53
2022/07/03 07:46:33;;;;;;;1.25;0.20;;;30.90;57.60;;;;;;5048002;28;20044;-54
2022/07/03 07:48:59;;;;;;;1.08;0.25;;;31.80;57.60;;;;;;5048525;28;20382;-54
2022/07/03 07:51:24;;;;;;;1.35;0.20;;;32.80;57.30;;;;;;5048489;28;20041;-54
2022/07/03 07:53:52;;;;;;;2.60;0.20;;;33.40;56.90;;;;;;5047760;28;20554;-53
2022/07/03 07:56:18;;;;;;;3.85;0.30;;;34.80;54.30;;;;;;5047732;28;20098;-52
2022/07/03 07:58:43;;;;;;;1.50;0.25;;;35.70;52.70;;;;;;5048390;28;20044;-54
2022/07/03 08:06:37;;;;;;;2.08;0.30;;;37.80;50.70;;;;;;5047812;28;20071;-54
2022/07/03 08:09:03;;;;;;;1.77;0.40;;;38.40;49.50;;;;;;5047229;28;20053;-55
2022/07/03 08:11:29;;;;;;;2.55;0.43;;;38.90;47.90;;;;;;5047770;28;20049;-55
2022/07/03 08:13:54;;;;;;;2.00;0.20;;;39.70;47.60;;;;;;5047876;28;20048;-53
2022/07/03 08:16:20;;;;;;;2.17;0.20;;;40.10;46.80;;;;;;5047491;28;20037;-53
2022/07/03 08:18:46;;;;;;;2.78;0.32;;;40.40;46.00;;;;;;5047891;28;20045;-53
2022/07/03 08:21:11;;;;;;;0.95;0.22;;;41.00;45.40;;;;;;5047667;28;20102;-53
2022/07/03 08:23:38;;;;;;;1.55;0.28;;;41.50;44.30;;;;;;5047366;28;20559;-53
2022/07/03 08:26:04;;;;;;;1.45;0.30;;;41.90;43.90;;;;;;5048118;28;20119;-53
2022/07/03 08:28:30;;;;;;;1.38;0.20;;;42.10;42.40;;;;;;5046287;28;20127;-53
2022/07/03 08:30:55;;;;;;;2.00;0.20;;;42.30;42.30;;;;;;5047826;28;20033;-53
2022/07/03 08:33:21;;;;;;;2.80;0.30;;;42.50;42.30;;;;;;5047975;28;20483;-53
2022/07/03 08:35:47;;;;;;;1.25;0.10;;;42.70;41.90;;;;;;5047554;28;20052;-53
2022/07/03 08:38:12;;;;;;;1.70;0.30;;;43.20;41.60;;;;;;5047272;28;20051;-53
2022/07/03 08:40:40;;;;;;;1.13;0.20;;;42.20;41.10;;;;;;5047517;28;20045;-53
2022/07/03 08:43:06;;;;;;;1.52;0.10;;;41.10;41.50;;;;;;5047491;28;20111;-53
2022/07/03 08:45:33;;;;;;;3.75;0.20;;;39.60;41.90;;;;;;5047163;28;20533;-53
2022/07/03 08:47:59;;;;;;;3.03;0.20;;;38.40;43.70;;;;;;5046646;28;20514;-51
2022/07/03 08:50:25;;;;;;;4.10;0.30;;;37.30;44.70;;;;;;5047594;28;20151;-52
2022/07/03 08:52:52;;;;;;;2.95;0.30;;;36.10;45.80;;;;;;5047300;28;20052;-52
2022/07/03 08:55:18;;;;;;;2.15;0.35;;;35.10;47.30;;;;;;5047286;28;20037;-51
2022/07/03 08:57:46;;;;;;;1.92;0.20;;;33.90;48.60;;;;;;5047449;28;20041;-51
2022/07/03 09:00:14;;;;;;;1.63;0.20;;;32.80;59.70;;;;;;5047340;28;20049;-52
2022/07/03 09:02:43;;;;;;;1.27;0.28;;;32.10;64.00;;;;;;5047798;28;20041;-53
2022/07/03 09:05:13;;;;;;;0.80;0.20;;;31.20;54.50;;;;;;5051480;28;20518;-53
2022/07/03 09:07:41;;;;;;;2.65;0.30;;;30.60;53.60;;;;;;5051034;28;20057;-52
2022/07/03 09:10:09;;;;;;;1.65;0.30;;;30.10;55.80;;;;;;5050809;28;20072;-53
2022/07/03 09:12:35;;;;;;;1.80;0.40;;;29.80;56.20;;;;;;5051220;28;20090;-54
2022/07/03 09:15:04;;;;;;;2.28;0.50;;;29.40;57.00;;;;;;5051366;28;20234;-52
2022/07/03 09:17:30;;;;;;;3.08;0.50;;;29.10;57.90;;;;;;5051030;28;20076;-52
2022/07/03 09:19:59;;;;;;;1.77;0.28;;;29.00;58.80;;;;;;5051272;28;20052;-53
2022/07/03 09:22:35;;;;;;;1.77;0.30;;;29.00;59.20;;;;;;5051232;28;20045;-52
2022/07/03 09:25:09;;;;;;;1.13;0.30;;;28.80;58.40;;;;;;5051267;28;20049;-52
2022/07/03 09:27:37;;;;;;;1.95;0.40;;;28.70;59.20;;;;;;5051487;28;20126;-56
2022/07/03 09:30:04;;;;;;;3.80;0.55;;;28.80;60.00;;;;;;5051036;28;20052;-56
2022/07/03 09:32:43;;;;;;;3.38;0.50;;;29.70;60.20;;;;;;5050766;28;20041;-56
2022/07/03 09:35:13;;;;;;;1.15;0.40;;;31.60;60.30;;;;;;5050624;28;20049;-57
2022/07/03 09:37:40;;;;;;;1.50;0.30;;;33.40;56.80;;;;;;5050416;28;20103;-57
2022/07/03 09:40:07;;;;;;;2.55;0.30;;;34.70;54.40;;;;;;5051158;28;20060;-57
2022/07/03 09:42:33;;;;;;;2.00;0.20;;;36.10;52.20;;;;;;5050964;28;20063;-57
2022/07/03 09:44:58;;;;;;;1.40;0.30;;;36.80;51.00;;;;;;5050417;28;20475;-56
2022/07/03 09:47:25;;;;;;;2.47;0.10;;;37.00;49.70;;;;;;5049213;28;20542;-57
2022/07/03 09:50:04;;;;;;;2.20;0.28;;;37.90;48.30;;;;;;5049679;28;20040;-57
2022/07/03 09:52:29;;;;;;;2.17;0.20;;;38.90;46.60;;;;;;5050802;28;20047;-57
2022/07/03 09:54:56;;;;;;;0.80;0.10;;;39.70;46.00;;;;;;5050337;28;20045;-57
2022/07/03 09:57:23;;;;;;;1.25;0.20;;;39.70;44.90;;;;;;5050452;28;20507;-57
2022/07/03 09:59:49;;;;;;;2.13;0.20;;;40.20;43.50;;;;;;5049925;28;20049;-57
2022/07/03 10:02:14;;;;;;;0.88;0.20;;;40.30;43.70;;;;;;5050374;28;20045;-57
2022/07/03 10:04:40;;;;;;;1.23;0.17;;;39.50;43.90;;;;;;5050124;28;20045;-57
2022/07/03 10:07:06;;;;;;;2.30;0.20;;;39.00;43.60;;;;;;5049693;28;20094;-57
2022/07/03 10:09:33;;;;;;;1.55;0.20;;;38.70;43.20;;;;;;5049238;28;20111;-57
2022/07/03 10:12:01;;;;;;;1.67;0.10;;;37.60;48.50;;;;;;5049655;28;20124;-57
2022/07/03 10:14:29;;;;;;;1.65;0.20;;;37.40;51.00;;;;;;5048764;28;20524;-57
2022/07/03 10:16:57;;;;;;;2.22;0.10;;;37.10;50.30;;;;;;5049632;28;20051;-57
2022/07/03 10:19:28;;;;;;;1.75;0.13;;;37.40;50.20;;;;;;5049505;28;20037;-57
2022/07/03 10:21:56;;;;;;;1.65;0.20;;;37.60;49.50;;;;;;5049855;28;20047;-57
2022/07/03 10:24:29;;;;;;;2.28;0.10;;;36.70;45.30;;;;;;5049861;28;20390;-57
2022/07/03 10:26:57;;;;;;;2.33;0.20;;;35.40;45.20;;;;;;5050056;28;20043;-56
2022/07/03 10:29:25;;;;;;;0.45;0.08;;;34.60;47.20;;;;;;5049848;28;20374;-57
2022/07/03 10:31:51;;;;;;;2.33;0.20;;;34.50;47.80;;;;;;5048766;28;20044;-57
2022/07/03 10:34:21;;;;;;;0.82;0.10;;;34.60;48.30;;;;;;5049235;28;20055;-56
2022/07/03 10:36:49;;;;;;;3.15;0.10;;;;;;;;;;5049289;28;20049;-56
2022/07/03 10:39:35;;;;;;;2.13;0.20;;;33.40;47.70;;;;;;5048781;28;20123;-57
2022/07/03 10:45:09;;;;;;;3.25;0.22;;;31.20;50.30;;;;;;5026748;28;20535;-52
2022/07/03 10:47:46;;;;;;;2.33;0.10;;;31.80;51.20;;;;;;5027222;28;20050;-49
2022/07/03 10:50:24;;;;;;;2.60;0.30;;;32.20;50.80;;;;;;5038957;28;20444;-51
2022/07/03 10:52:51;;;;;;;3.17;0.13;;;33.00;50.60;;;;;;5049813;28;20037;-49
2022/07/03 10:55:18;;;;;;;1.00;0.10;;;33.60;49.60;;;;;;5049947;28;20063;-52
2022/07/03 10:58:07;;;;;;;1.90;0.10;;;33.30;48.80;;;;;;5050054;28;20051;-49
2022/07/03 11:00:54;;;;;;;2.25;0.20;;;32.50;49.40;;;;;;5049598;28;20040;-52
2022/07/03 11:03:52;;;;;;;0.98;0.00;;;31.80;51.50;;;;;;5049564;28;20042;-49
2022/07/03 11:06:18;;;;;;;0.90;0.20;;;30.90;51.80;;;;;;5049781;28;20099;-48
2022/07/03 11:09:04;;;;;;;1.85;0.10;;;30.00;52.80;;;;;;5048114;28;20045;-50
2022/07/03 11:11:56;;;;;;;1.17;0.10;;;29.40;54.30;;;;;;5049356;28;20179;-49
2022/07/03 11:14:23;;;;;;;3.60;0.20;;;28.90;54.50;;;;;;5049357;28;20043;-51
2022/07/03 11:16:48;;;;;;;1.90;0.38;;;28.70;55.30;;;;;;5049210;28;20045;-49
2022/07/03 11:19:15;;;;;;;0.52;0.10;;;28.60;56.10;;;;;;5049072;28;20119;-49
2022/07/03 11:21:48;;;;;;;1.45;0.10;;;28.10;56.20;;;;;;5049055;28;20375;-48
2022/07/03 11:24:35;;;;;;;1.38;0.13;;;27.80;57.40;;;;;;5049253;28;20052;-48
2022/07/03 11:27:21;;;;;;;3.42;0.25;;;27.40;57.80;;;;;;5048862;28;20041;-48
2022/07/03 11:29:52;;;;;;;2.53;0.25;;;27.20;58.70;;;;;;5048379;28;20080;-49
2022/07/03 11:32:44;;;;;;;1.75;0.20;;;27.00;58.90;;;;;;5049082;28;20040;-49
2022/07/03 11:35:48;;;;;;;1.33;0.13;;;26.70;58.80;;;;;;5048721;28;20084;-48
2022/07/03 11:38:31;;;;;;;0.50;0.10;;;26.30;59.70;;;;;;5048977;28;20037;-49
2022/07/03 11:40:59;;;;;;;1.00;0.20;;;26.20;60.10;;;;;;5049193;28;20067;-48
2022/07/03 11:43:25;;;;;;;2.45;0.20;;;26.30;61.60;;;;;;5049523;28;20045;-48
2022/07/03 11:45:51;;;;;;;0.40;0.10;;;26.40;62.10;;;;;;5049135;28;20052;-50
2022/07/03 11:48:23;;;;;;;1.35;0.10;;;26.60;61.90;;;;;;5049414;28;20041;-49
2022/07/03 11:50:50;;;;;;;1.83;0.20;;;26.70;61.90;;;;;;5049296;28;20482;-48
2022/07/03 11:53:30;;;;;;;1.95;0.13;;;26.70;62.10;;;;;;5048748;28;20134;-48
2022/07/03 11:56:01;;;;;;;2.28;0.17;;;26.70;61.70;;;;;;5049002;28;20094;-51
2022/07/03 11:58:44;;;;;;;1.38;0.15;;;26.70;62.00;;;;;;5047465;28;20053;-51
2022/07/03 12:01:27;;;;;;;0.85;0.20;;;26.60;61.40;;;;;;5048920;28;20032;-48
2022/07/03 12:04:12;;;;;;;1.67;0.10;;;26.60;61.90;;;;;;5048904;28;20037;-51
2022/07/03 12:06:50;;;;;;;0.85;0.10;;;26.80;61.80;;;;;;5048860;28;20056;-48
2022/07/03 12:09:37;;;;;;;1.60;0.35;;;27.10;61.40;;;;;;5048329;28;20132;-49
2022/07/03 12:12:09;;;;;;;1.00;0.10;;;27.20;61.00;;;;;;5048184;28;20102;-48
2022/07/03 12:14:47;;;;;;;0.98;0.10;;;27.10;61.40;;;;;;5047201;28;20128;-49
2022/07/03 12:17:16;;;;;;;1.85;0.20;;;26.90;61.80;;;;;;5048256;28;20044;-50
2022/07/03 12:19:46;;;;;;;0.98;0.10;;;26.90;63.30;;;;;;5048177;28;20041;-49
2022/07/03 12:22:12;;;;;;;1.55;0.20;;;26.60;63.50;;;;;;5048187;28;20623;-48
2022/07/03 12:24:39;;;;;;;3.50;0.10;;;26.20;63.00;;;;;;5048039;28;20491;-48
2022/07/03 12:27:05;;;;;;;1.20;0.10;;;26.10;63.60;;;;;;5047909;28;20441;-51
2022/07/03 12:29:31;;;;;;;1.67;0.20;;;25.90;64.40;;;;;;5048028;28;20037;-49
2022/07/03 12:31:57;;;;;;;2.13;0.10;;;25.50;64.90;;;;;;5048479;28;20037;-51
2022/07/03 12:34:23;;;;;;;0.55;0.10;;;25.30;65.00;;;;;;5048101;28;20581;-48
2022/07/03 12:36:57;;;;;;;1.40;0.20;;;25.30;64.80;;;;;;5048278;28;20057;-49
2022/07/03 12:39:23;;;;;;;0.65;0.10;;;25.50;66.90;;;;;;5047125;28;20440;-48
2022/07/03 12:41:49;;;;;;;1.70;0.10;;;25.40;66.20;;;;;;5048233;28;20045;-49
2022/07/03 12:44:20;;;;;;;2.20;0.20;;;25.30;66.00;;;;;;5048185;28;20041;-49
2022/07/03 12:46:46;;;;;;;0.75;0.38;;;25.40;66.60;;;;;;5047251;28;20056;-48
2022/07/03 12:49:13;;;;;;;0.90;0.10;;;25.50;66.50;;;;;;5048646;28;20151;-51
2022/07/03 12:51:45;;;;;;;1.80;0.20;;;25.20;66.10;;;;;;5048467;28;20045;-48
2022/07/03 12:54:33;;;;;;;4.30;0.40;;;25.20;67.70;;;;;;5048774;28;20178;-47
2022/07/03 13:00:04;;;;;;;2.42;0.40;;;25.20;69.30;;;;;;5048328;28;20052;-50
2022/07/03 13:02:29;;;;;;;1.95;0.30;;;25.20;69.90;;;;;;5048451;28;20434;-49
2022/07/03 13:04:59;;;;;;;2.17;0.47;;;25.30;69.90;;;;;;5048176;28;20045;-49
2022/07/03 13:07:29;;;;;;;3.22;0.32;;;25.40;70.30;;;;;;5048025;28;20106;-50
2022/07/03 13:09:55;;;;;;;6.50;0.47;;;25.40;70.20;;;;;;5047839;28;20065;-51
2022/07/03 13:12:22;;;;;;;2.53;0.30;;;25.50;68.70;;;;;;5047703;28;20041;-49